CheckWX is a tool to help pilots better visualize weather data.  It is not intended as a substitute for an official pre-flight weather briefing.

05:32:22 UTC

KSDY TAF
Sidney-Richland Regional Airport
Sidney, Montana, USA
KSDY 072322Z 0800/0824 28008KT P6SM SCT080 FM080400 35009KT P6SM VCSH OVC023 FM080800 36010KT 2SM -FZDZSN OVC010 FM081400 03011KT 3/4SM -SN OVC006 FM081800 06011KT 1/2SM SN OVC012

Dec-8@
00:00 UTC

Dec-8 @ 00:00 UTC

Dec-8@
04:00 UTC

Dec-8 @ 04:00 UTC

KSDY 072322Z 0800/0824 28008KT P6SM SCT080

Expired

Wind
  • 280° at 8 KTS
Cloud Levels
  • Scattered at 8,000' AGL

Dec-8@
04:00 UTC

Dec-8 @ 04:00 UTC

Dec-8@
08:00 UTC

Dec-8 @ 08:00 UTC

FM080400 35009KT P6SM VCSH OVC023

From

From Standard forecast or significant change

Wind
  • 350° at 9 KTS
Cloud Levels
  • Overcast at 2,300' AGL

Dec-8@
08:00 UTC

Dec-8 @ 08:00 UTC

Dec-8@
14:00 UTC

Dec-8 @ 14:00 UTC

FM080800 36010KT 2SM -FZDZSN OVC010

From

From Standard forecast or significant change

Wind
  • 360° at 10 KTS
Conditions
Light Freezing Light Drizzle, Snow
Cloud Levels
  • Overcast at 1,000' AGL

Dec-8@
14:00 UTC

Dec-8 @ 14:00 UTC

Dec-8@
18:00 UTC

Dec-8 @ 18:00 UTC

FM081400 03011KT 3/4SM -SN OVC006

From

From Standard forecast or significant change

Wind
  • 030° at 11 KTS
Conditions
Light Snow
Cloud Levels
  • Overcast at 600' AGL

Dec-8@
18:00 UTC

Dec-8 @ 18:00 UTC

Dec-9@
00:00 UTC

Dec-9 @ 00:00 UTC

FM081800 06011KT 1/2SM SN OVC012

From

From Standard forecast or significant change

Wind
  • 060° at 11 KTS
Conditions
Snow
Cloud Levels
  • Overcast at 1,200' AGL